createdAt,value
2023-12-11T00:01:34.160Z,99174.17
2023-12-11T00:04:00.836Z,99181.83
2023-12-11T00:06:27.557Z,99176.88
2023-12-11T00:08:54.270Z,99180.88
2023-12-11T00:11:22.213Z,99186.30
2023-12-11T00:13:49.143Z,99194.59
2023-12-11T00:16:17.771Z,99198.33
2023-12-11T00:18:44.738Z,99190.23
2023-12-11T00:21:11.904Z,99191.28
2023-12-11T00:23:38.699Z,99190.56
2023-12-11T00:26:06.048Z,99190.18
2023-12-11T00:28:32.659Z,99181.50
2023-12-11T00:31:00.157Z,99178.44
2023-12-11T00:33:26.850Z,99176.25
2023-12-11T00:35:53.662Z,99181.23
2023-12-11T00:38:20.356Z,99181.20
2023-12-11T00:40:47.239Z,99172.83
2023-12-11T00:43:13.991Z,99165.38
2023-12-11T00:45:40.616Z,99160.11
2023-12-11T00:48:07.315Z,99156.29
2023-12-11T00:50:34.502Z,99156.84
2023-12-11T00:53:01.053Z,99157.90
2023-12-11T00:55:27.981Z,99159.89
2023-12-11T00:57:54.576Z,99157.82
2023-12-11T01:00:22.249Z,99160.21
2023-12-11T01:02:48.951Z,99161.98
2023-12-11T01:05:15.684Z,99154.59
2023-12-11T01:07:42.350Z,99156.24
2023-12-11T01:12:48.032Z,99129.50
2023-12-11T01:15:14.601Z,99115.71
2023-12-11T01:17:41.506Z,99097.55
2023-12-11T01:20:12.258Z,99082.89
2023-12-11T01:22:38.964Z,99076.42
2023-12-11T01:25:09.607Z,99085.06
2023-12-11T01:27:36.658Z,99074.69
2023-12-11T01:30:03.742Z,99077.80
2023-12-11T01:32:30.537Z,99095.86
2023-12-11T01:34:57.611Z,99121.34
2023-12-11T01:37:24.176Z,99151.38
2023-12-11T01:39:50.742Z,99132.60
2023-12-11T01:42:17.659Z,99144.40
2023-12-11T01:44:44.223Z,99142.05
2023-12-11T01:47:11.169Z,99138.30
2023-12-11T01:49:38.821Z,99149.29
2023-12-11T01:52:07.999Z,99148.36
2023-12-11T01:54:37.610Z,99133.47
2023-12-11T01:57:04.661Z,99118.98
2023-12-11T01:59:31.311Z,99091.35
2023-12-11T02:01:58.141Z,99071.25
2023-12-11T02:04:25.047Z,99060.11
2023-12-11T02:06:51.842Z,99038.20
2023-12-11T02:09:18.543Z,99018.52
2023-12-11T02:11:47.096Z,99013.19
2023-12-11T02:14:14.344Z,99024.53
2023-12-11T02:16:42.278Z,99038.29
2023-12-11T02:19:09.204Z,99041.94
2023-12-11T02:21:36.456Z,99047.04
2023-12-11T02:24:18.889Z,99043.93
2023-12-11T02:26:45.533Z,99038.71
2023-12-11T02:29:12.248Z,99029.20
2023-12-11T02:31:41.983Z,99022.91
2023-12-11T02:34:09.858Z,99013.48
2023-12-11T02:36:36.802Z,99006.06
2023-12-11T02:39:03.924Z,98983.55
2023-12-11T02:41:30.557Z,98982.02
2023-12-11T02:43:58.888Z,98972.59
2023-12-11T02:46:25.737Z,98973.29
2023-12-11T02:48:52.568Z,98971.03
2023-12-11T02:51:19.329Z,98971.69
2023-12-11T02:53:46.294Z,98961.66
2023-12-11T02:56:12.920Z,98963.80
2023-12-11T02:58:39.587Z,98960.54
2023-12-11T03:01:06.356Z,98956.11
2023-12-11T03:03:33.181Z,98955.58
2023-12-11T03:06:00.890Z,98949.30
2023-12-11T03:08:27.486Z,98952.06
2023-12-11T03:10:54.094Z,98949.98
2023-12-11T03:13:20.736Z,98944.45
2023-12-11T03:15:47.276Z,98938.42
2023-12-11T03:18:13.950Z,98932.20
2023-12-11T03:20:40.560Z,98927.02
2023-12-11T03:23:07.059Z,98919.80
2023-12-11T03:25:33.563Z,98913.88
2023-12-11T03:28:00.353Z,98911.45
2023-12-11T03:30:26.994Z,98908.48
2023-12-11T03:32:53.623Z,98899.00
2023-12-11T03:35:20.340Z,98894.23
2023-12-11T03:37:49.162Z,98894.34
2023-12-11T03:40:15.866Z,98899.60
2023-12-11T03:42:43.435Z,98904.21
2023-12-11T03:45:11.358Z,98897.85
2023-12-11T03:47:38.095Z,98893.79
2023-12-11T03:50:05.264Z,98895.73
2023-12-11T03:52:31.871Z,98891.14
2023-12-11T03:54:58.598Z,98885.02
2023-12-11T03:57:25.205Z,98888.77
2023-12-11T03:59:51.818Z,98889.92
2023-12-11T04:02:18.552Z,98881.75
2023-12-11T04:04:45.286Z,98882.68
2023-12-11T04:07:12.159Z,98888.13
2023-12-11T04:09:38.961Z,98890.02
2023-12-11T04:12:05.552Z,98888.58
2023-12-11T04:14:32.209Z,98875.21
2023-12-11T04:16:58.833Z,98871.29
2023-12-11T04:19:25.821Z,98858.80
2023-12-11T04:21:52.520Z,98858.77
2023-12-11T04:24:19.131Z,98861.55
2023-12-11T04:26:47.644Z,98862.32
2023-12-11T04:29:14.311Z,98863.17
2023-12-11T04:31:40.919Z,98868.09
2023-12-11T04:34:07.758Z,98867.13
2023-12-11T04:36:34.380Z,98867.05
2023-12-11T04:39:00.929Z,98865.08
2023-12-11T04:41:27.696Z,98862.83
2023-12-11T04:43:54.198Z,98862.88
2023-12-11T04:46:20.841Z,98855.98
2023-12-11T04:48:47.638Z,98847.88
2023-12-11T04:51:14.396Z,98845.23
2023-12-11T04:53:41.008Z,98845.23
2023-12-11T04:56:08.482Z,98841.07
2023-12-11T04:58:35.129Z,98842.61
2023-12-11T05:01:01.843Z,98838.98
2023-12-11T05:03:28.607Z,98825.04
2023-12-11T05:05:55.289Z,98823.73
2023-12-11T05:08:21.822Z,98824.73
2023-12-11T05:10:48.344Z,98819.88
2023-12-11T05:13:14.949Z,98817.47
2023-12-11T05:15:41.801Z,98824.63
2023-12-11T05:18:08.512Z,98828.25
2023-12-11T05:20:35.085Z,98827.55
2023-12-11T05:23:01.607Z,98824.45
2023-12-11T05:25:28.129Z,98835.45
2023-12-11T05:27:54.755Z,98830.38
2023-12-11T05:30:23.523Z,98831.55
2023-12-11T05:32:51.185Z,98832.17
2023-12-11T05:35:18.010Z,98834.92
2023-12-11T05:37:44.663Z,98833.65
2023-12-11T05:40:21.974Z,98832.05
2023-12-11T05:42:51.564Z,98824.31
2023-12-11T05:45:18.387Z,98829.48
2023-12-11T05:47:44.893Z,98828.60
2023-12-11T05:50:12.565Z,98820.67
2023-12-11T05:52:39.404Z,98819.92
2023-12-11T05:55:06.117Z,98822.97
2023-12-11T05:57:33.205Z,98824.10
2023-12-11T05:59:59.791Z,98824.02
2023-12-11T06:02:26.489Z,98828.02
2023-12-11T06:04:53.232Z,98826.42
2023-12-11T06:07:20.205Z,98832.90
2023-12-11T06:09:46.757Z,98832.64
2023-12-11T06:12:13.582Z,98833.19
2023-12-11T06:14:41.000Z,98830.67
2023-12-11T06:17:07.745Z,98830.40
2023-12-11T06:19:34.743Z,98831.37
2023-12-11T06:22:01.384Z,98834.08
2023-12-11T06:24:28.937Z,98832.67
2023-12-11T06:26:55.686Z,98833.63
2023-12-11T06:29:22.356Z,98836.27
2023-12-11T06:31:48.962Z,98834.52
2023-12-11T06:34:15.781Z,98835.67
2023-12-11T06:36:42.990Z,98840.86
2023-12-11T06:39:10.192Z,98848.25
2023-12-11T06:41:37.019Z,98852.84
2023-12-11T06:44:04.072Z,98853.19
2023-12-11T06:46:31.233Z,98854.23
2023-12-11T06:48:58.649Z,98855.58
2023-12-11T06:51:25.600Z,98858.14
2023-12-11T06:53:58.851Z,98856.27
2023-12-11T06:56:31.373Z,98854.05
2023-12-11T06:58:58.567Z,98853.45
2023-12-11T07:01:29.858Z,98854.91
2023-12-11T07:03:57.154Z,98858.08
2023-12-11T07:06:24.677Z,98860.77
2023-12-11T07:08:51.390Z,98864.61
2023-12-11T07:11:18.418Z,98866.50
2023-12-11T07:13:45.550Z,98872.45
2023-12-11T07:16:12.501Z,98875.19
2023-12-11T07:18:39.886Z,98875.73
2023-12-11T07:21:12.144Z,98872.89
2023-12-11T07:23:39.528Z,98872.69
2023-12-11T07:26:09.164Z,98876.24
2023-12-11T07:28:41.138Z,98880.34
2023-12-11T07:31:07.794Z,98884.59
2023-12-11T07:33:34.597Z,98885.70
2023-12-11T07:36:05.179Z,98880.77
2023-12-11T07:38:31.997Z,98880.20
2023-12-11T07:40:59.076Z,98882.34
2023-12-11T07:43:26.136Z,98886.73
2023-12-11T07:45:55.900Z,98882.98
2023-12-11T07:48:22.575Z,98878.43
2023-12-11T07:50:49.240Z,98878.95
2023-12-11T07:53:15.995Z,98879.33
2023-12-11T07:55:42.757Z,98885.93
2023-12-11T07:58:11.132Z,98883.89
2023-12-11T08:00:37.881Z,98887.47
2023-12-11T08:03:06.576Z,98890.20
2023-12-11T08:05:33.276Z,98892.95
2023-12-11T08:07:59.990Z,98894.52
2023-12-11T08:10:26.803Z,98894.36
2023-12-11T08:12:53.681Z,98897.91
2023-12-11T08:15:20.644Z,98902.27
2023-12-11T08:17:47.256Z,98901.56
2023-12-11T08:20:17.326Z,98899.05
2023-12-11T08:22:44.363Z,98894.21
2023-12-11T08:25:11.849Z,98896.15
2023-12-11T08:27:38.501Z,98894.59
2023-12-11T08:30:05.628Z,98897.80
2023-12-11T08:32:32.221Z,98898.27
2023-12-11T08:35:04.150Z,98903.48
2023-12-11T08:37:31.081Z,98901.02
2023-12-11T08:39:57.802Z,98899.55
2023-12-11T08:42:24.402Z,98905.33
2023-12-11T08:44:50.979Z,98904.67
2023-12-11T08:47:17.688Z,98914.42
2023-12-11T08:49:44.507Z,98915.98
2023-12-11T08:52:11.282Z,98913.49
2023-12-11T08:54:37.996Z,98919.52
2023-12-11T08:57:04.826Z,98920.34
2023-12-11T08:59:32.852Z,98921.95
2023-12-11T09:01:59.633Z,98918.95
2023-12-11T09:04:26.396Z,98921.21
2023-12-11T09:06:55.228Z,98921.43
2023-12-11T09:09:21.867Z,98925.51
2023-12-11T09:11:49.411Z,98926.98
2023-12-11T09:14:16.199Z,98926.25
2023-12-11T09:16:42.777Z,98924.22
2023-12-11T09:19:09.423Z,98926.16
2023-12-11T09:21:36.829Z,98924.98
2023-12-11T09:24:04.527Z,98925.52
2023-12-11T09:26:31.063Z,98924.63
2023-12-11T09:28:58.239Z,98923.81
2023-12-11T09:31:25.047Z,98914.21
2023-12-11T09:33:51.987Z,98919.98
2023-12-11T09:36:19.590Z,98915.41
2023-12-11T09:38:46.208Z,98911.89
2023-12-11T09:41:12.883Z,98909.86
2023-12-11T09:43:40.087Z,98905.95
2023-12-11T09:46:08.824Z,98902.70
2023-12-11T09:48:35.720Z,98901.60
2023-12-11T09:51:03.332Z,98899.90
2023-12-11T09:53:32.933Z,98894.36
2023-12-11T09:56:00.194Z,98889.87
2023-12-11T09:58:27.107Z,98879.98
2023-12-11T10:00:53.800Z,98883.06
2023-12-11T10:03:20.594Z,98872.11
2023-12-11T10:05:48.369Z,98872.35
2023-12-11T10:08:16.678Z,98871.92
2023-12-11T10:10:43.310Z,98870.52
2023-12-11T10:13:23.270Z,98865.52
2023-12-11T10:15:50.673Z,98851.73
2023-12-11T10:18:17.485Z,98844.27
2023-12-11T10:20:54.485Z,98844.79
2023-12-11T10:23:22.535Z,98842.22
2023-12-11T10:25:51.341Z,98842.36
2023-12-11T10:28:21.392Z,98844.15
2023-12-11T10:30:52.761Z,98843.79
2023-12-11T10:33:20.463Z,98841.52
2023-12-11T10:35:48.029Z,98835.28
2023-12-11T10:38:25.713Z,98832.72
2023-12-11T10:40:53.943Z,98825.93
2023-12-11T10:43:20.737Z,98825.04
2023-12-11T10:45:51.224Z,98817.13
2023-12-11T10:48:23.304Z,98806.05
2023-12-11T10:50:50.781Z,98805.06
2023-12-11T10:53:17.850Z,98798.98
2023-12-11T10:55:47.863Z,98804.40
2023-12-11T10:58:15.255Z,98797.29
2023-12-11T11:00:44.635Z,98796.08
2023-12-11T11:03:13.223Z,98792.48
2023-12-11T11:05:41.752Z,98781.58
2023-12-11T11:08:16.397Z,98779.91
2023-12-11T11:11:15.257Z,98779.88
2023-12-11T11:14:09.247Z,98779.69
2023-12-11T11:16:55.086Z,98784.57
2023-12-11T11:19:21.979Z,98781.09
2023-12-11T11:22:09.821Z,98787.89
2023-12-11T11:24:36.786Z,98774.50
2023-12-11T11:27:05.264Z,98774.52
2023-12-11T11:29:42.922Z,98766.32
2023-12-11T11:32:11.301Z,98763.77
2023-12-11T11:34:41.097Z,98761.88
2023-12-11T11:37:10.435Z,98760.50
2023-12-11T11:40:04.477Z,98759.32
2023-12-11T11:42:36.074Z,98754.79
2023-12-11T11:45:05.943Z,98754.96
2023-12-11T11:47:33.208Z,98750.36
2023-12-11T11:50:07.607Z,98747.84
2023-12-11T11:52:36.276Z,98745.59
2023-12-11T11:55:27.393Z,98742.30
2023-12-11T11:57:54.860Z,98745.10
2023-12-11T12:00:23.456Z,98747.91
2023-12-11T12:03:07.432Z,98744.33
2023-12-11T12:05:35.289Z,98739.71
2023-12-11T12:08:05.681Z,98740.92
2023-12-11T12:10:32.371Z,98742.69
2023-12-11T12:13:00.649Z,98736.23
2023-12-11T12:15:28.560Z,98736.50
2023-12-11T12:18:07.253Z,98732.52
2023-12-11T12:20:34.030Z,98729.53
2023-12-11T12:23:06.203Z,98733.73
2023-12-11T12:25:34.378Z,98725.92
2023-12-11T16:15:34.950Z,98701.42
2023-12-11T16:18:02.994Z,98701.58
2023-12-11T16:20:30.949Z,98701.60
2023-12-11T16:22:58.988Z,98703.23
2023-12-11T16:25:27.165Z,98708.53
2023-12-11T16:27:55.271Z,98714.92
2023-12-11T16:30:23.318Z,98713.20
2023-12-11T16:32:51.388Z,98718.54
2023-12-11T16:35:19.340Z,98721.23
2023-12-11T16:37:47.296Z,98715.83
2023-12-11T16:40:15.824Z,98716.70
2023-12-11T16:42:45.405Z,98717.48
2023-12-11T16:45:14.602Z,98719.29
2023-12-11T16:47:51.003Z,98718.34
2023-12-11T16:50:19.042Z,98726.85
2023-12-11T16:52:47.080Z,98730.16
2023-12-11T16:55:16.191Z,98730.65
2023-12-11T16:57:44.893Z,98732.94
2023-12-11T17:00:13.812Z,98733.02
2023-12-11T17:02:41.796Z,98733.02
2023-12-11T17:05:10.030Z,98728.86
2023-12-11T17:07:38.371Z,98730.16
2023-12-11T17:10:07.172Z,98727.00
2023-12-11T17:12:35.143Z,98721.23
2023-12-11T17:15:03.892Z,98724.14
2023-12-11T17:17:32.384Z,98725.67
2023-12-11T17:20:00.458Z,98728.34
2023-12-11T17:22:28.530Z,98723.18
2023-12-11T17:24:56.784Z,98716.49
2023-12-11T17:27:24.909Z,98718.15
2023-12-11T17:29:52.902Z,98712.16
2023-12-11T17:32:21.120Z,98709.02
2023-12-11T17:34:49.400Z,98706.38
2023-12-11T17:37:17.868Z,98698.46
2023-12-11T17:39:45.813Z,98686.61
2023-12-11T17:42:14.239Z,98682.61
2023-12-11T17:44:42.223Z,98673.91
2023-12-11T17:47:10.777Z,98666.90
2023-12-11T17:49:41.317Z,98664.33
2023-12-11T17:52:12.001Z,98663.15
2023-12-11T17:54:40.241Z,98660.48
2023-12-11T17:57:08.294Z,98658.91
2023-12-11T17:59:36.187Z,98653.46
2023-12-11T18:02:05.750Z,98653.74
2023-12-11T18:04:34.048Z,98660.48
2023-12-11T18:07:02.861Z,98660.17
2023-12-11T18:09:31.329Z,98656.29
2023-12-11T18:12:00.584Z,98654.25
2023-12-11T18:14:28.708Z,98659.95
2023-12-11T18:16:57.142Z,98655.04
2023-12-11T18:19:25.477Z,98654.20
2023-12-11T18:21:53.642Z,98655.63
2023-12-11T18:24:21.587Z,98657.69
2023-12-11T18:26:50.452Z,98657.80
2023-12-11T18:29:19.159Z,98658.23
2023-12-11T18:31:47.585Z,98655.64
2023-12-11T18:36:45.294Z,98651.92
2023-12-11T18:39:14.795Z,98657.64
2023-12-11T18:41:43.375Z,98653.04
2023-12-11T18:44:11.452Z,98652.27
2023-12-11T18:46:39.652Z,98653.59
2023-12-11T18:49:07.776Z,98660.48
2023-12-11T18:51:36.146Z,98662.59
2023-12-11T18:54:04.243Z,98664.34
2023-12-11T18:56:32.212Z,98675.64
2023-12-11T18:59:00.203Z,98680.05
2023-12-11T19:01:28.239Z,98679.10
2023-12-11T19:03:56.547Z,98681.80
2023-12-11T19:06:24.635Z,98680.27
2023-12-11T19:08:52.615Z,98679.63
2023-12-11T19:11:20.642Z,98686.55
2023-12-11T19:13:48.642Z,98692.30
2023-12-11T19:16:16.669Z,98695.48
2023-12-11T19:18:44.792Z,98693.58
2023-12-11T19:21:15.001Z,98691.30
2023-12-11T19:23:43.130Z,98693.30
2023-12-11T19:26:12.962Z,98697.45
2023-12-11T19:28:40.925Z,98695.13
2023-12-11T19:31:08.977Z,98700.92
2023-12-11T19:33:36.914Z,98700.78
2023-12-11T19:36:05.401Z,98700.56
2023-12-11T19:38:33.404Z,98702.20
2023-12-11T19:41:01.380Z,98701.02
2023-12-11T19:43:29.391Z,98703.27
2023-12-11T19:45:57.413Z,98705.95
2023-12-11T19:48:25.564Z,98704.27
2023-12-11T19:50:53.626Z,98701.23
2023-12-11T19:53:21.694Z,98708.98
2023-12-11T19:55:49.930Z,98716.23
2023-12-11T19:58:19.912Z,98715.26
2023-12-11T20:00:49.166Z,98717.89
2023-12-11T20:03:17.193Z,98721.02
2023-12-11T20:05:45.241Z,98720.34
2023-12-11T20:08:13.329Z,98724.83
2023-12-11T20:10:41.369Z,98728.04
2023-12-11T20:13:09.289Z,98723.30
2023-12-11T20:15:38.522Z,98720.75
2023-12-11T20:18:07.738Z,98722.77
2023-12-11T20:20:35.712Z,98725.19
2023-12-11T20:23:03.920Z,98728.84
2023-12-11T20:25:31.836Z,98733.70
2023-12-11T20:27:59.852Z,98734.90
2023-12-11T20:30:27.951Z,98740.19
2023-12-11T20:32:55.978Z,98741.86
2023-12-11T20:35:24.122Z,98746.70
2023-12-11T20:37:52.732Z,98747.63
2023-12-11T20:40:20.712Z,98753.16
2023-12-11T20:42:48.592Z,98754.61
2023-12-11T20:45:18.193Z,98760.65
2023-12-11T20:47:49.579Z,98771.44
2023-12-11T20:50:17.620Z,98773.44
2023-12-11T20:52:45.697Z,98776.41
2023-12-11T20:55:13.746Z,98779.54
2023-12-11T20:57:41.684Z,98789.60
2023-12-11T21:00:11.564Z,98789.73
2023-12-11T21:02:39.944Z,98802.14
2023-12-11T21:05:08.280Z,98797.16
2023-12-11T21:07:36.272Z,98799.83
2023-12-11T21:10:04.808Z,98807.08
2023-12-11T21:12:32.816Z,98809.09
2023-12-11T21:15:01.086Z,98805.59
2023-12-11T21:17:29.261Z,98803.45
2023-12-11T21:19:57.424Z,98811.36
2023-12-11T21:22:25.466Z,98813.48
2023-12-11T21:24:53.448Z,98816.04
2023-12-11T21:27:21.418Z,98821.55
2023-12-11T21:29:49.454Z,98830.13
2023-12-11T21:32:17.468Z,98835.80
2023-12-11T21:34:45.739Z,98842.84
2023-12-11T21:37:14.225Z,98847.71
2023-12-11T21:39:42.384Z,98839.80
2023-12-11T21:42:10.307Z,98841.03
2023-12-11T21:44:38.203Z,98836.52
2023-12-11T21:47:06.773Z,98845.91
2023-12-11T21:49:34.765Z,98850.91
2023-12-11T21:52:04.186Z,98852.92
2023-12-11T21:54:32.093Z,98856.67
2023-12-11T21:56:59.951Z,98856.06
2023-12-11T21:59:35.692Z,98865.80
2023-12-11T22:02:10.681Z,98870.45
2023-12-11T22:04:38.724Z,98878.05
2023-12-11T22:07:06.769Z,98879.79
2023-12-11T22:09:34.803Z,98885.67
2023-12-11T22:12:02.763Z,98895.70
2023-12-11T22:14:30.808Z,98902.02
2023-12-11T22:16:58.793Z,98906.45
2023-12-11T22:19:27.357Z,98912.50
2023-12-11T22:21:55.725Z,98917.91
2023-12-11T22:24:23.684Z,98924.80
2023-12-11T22:26:52.842Z,98928.55
2023-12-11T22:29:20.908Z,98931.27
2023-12-11T22:31:49.463Z,98922.93
2023-12-11T22:34:17.587Z,98931.81
2023-12-11T22:36:45.671Z,98936.80
2023-12-11T22:39:13.671Z,98939.62
2023-12-11T22:41:41.611Z,98939.95
2023-12-11T22:44:11.095Z,98942.12
2023-12-11T22:46:39.070Z,98945.50
2023-12-11T22:49:07.265Z,98948.91
2023-12-11T22:51:35.184Z,98950.18
2023-12-11T22:54:03.086Z,98947.69
2023-12-11T22:56:31.017Z,98954.24
2023-12-11T22:58:59.020Z,98955.12
2023-12-11T23:01:32.766Z,98958.93
2023-12-11T23:04:00.824Z,98964.11
2023-12-11T23:06:28.955Z,98968.39
2023-12-11T23:08:56.870Z,98972.27
2023-12-11T23:11:24.828Z,98978.36
2023-12-11T23:13:52.923Z,98990.63
2023-12-11T23:16:27.369Z,98989.58
2023-12-11T23:19:00.208Z,98996.77
2023-12-11T23:21:33.010Z,98998.00
2023-12-11T23:24:01.413Z,98999.35
2023-12-11T23:26:29.373Z,98999.73
2023-12-11T23:28:57.380Z,98998.73
2023-12-11T23:31:25.335Z,98997.73
2023-12-11T23:33:53.957Z,99007.48
2023-12-11T23:36:22.026Z,99005.65
2023-12-11T23:38:50.155Z,99011.00
2023-12-11T23:41:18.112Z,99006.60
2023-12-11T23:43:46.021Z,99011.67
2023-12-11T23:46:14.034Z,99013.77
2023-12-11T23:48:42.263Z,99021.08
2023-12-11T23:51:10.383Z,99021.80
2023-12-11T23:53:38.330Z,99027.47
2023-12-11T23:56:06.771Z,99032.95
2023-12-11T23:58:35.127Z,99038.20
